logo
Search for airport 
image banner adimage banner adimage banner ad
image banner ad

SJ4J - Aero Helinorte

Located in São João Do Araguaia, Brazil

ICAO - SJ4J, IATA -

Data provided by Airmate  

General information

Coordinates: S5°26'52" W48°55'12"
Elevation is 482 feet MSL.
 
View others Airports in Tocatins

Operational data

Special qualification required
Current time UTC:
Current local time:
Weather at : SBMA - João Corrêa Da Rocha ( 26 km )
METAR: SBMA 140400Z 29003KT 9999 FEW006 SCT015 26/26 Q1011
TAF: TAF SBMA 132132Z 1400/1412 VRB03KT 7000 SCT020 FEW030TCU TN24/1409Z TX26/1411Z TEMPO 1400/1403 3500 TSRA BKN020 FEW030CB RMK PGX
View NOTAMs / SUP AIP / TFR affecting this airport [VIEW]
Communications frequencies: [VIEW]

Runways:

RWY identifierQFULength (ft)Width (ft)SurfaceLDA (ft)
09412475GRAVEL
27412475GRAVEL

Airport contact information

Address: São João Do Araguaia Brazil

Satellite view of SJ4J